Time;durP1;ratioP1;P1;durP2;ratioP2;P2;SDS_P1;SDS_P2;PMS_P1;PMS_P2;Temp;Humidity;BMP_temperature;BMP_pressure;BME280_temperature;BME280_humidity;BME280_pressure;Samples;Min_cycle;Max_cycle;Signal;HPM_P1;HPM_P2
2022/04/30 00:01:24;;;;;;;4.68;2.67;;;;;;;11.98;47.41;102533.91;5083004;28;20065;-46
2022/04/30 00:03:50;;;;;;;5.82;2.78;;;;;;;11.94;47.30;102527.31;5087724;28;20370;-46
2022/04/30 00:06:15;;;;;;;5.75;2.63;;;;;;;11.90;47.68;102530.66;5083797;28;20139;-45
2022/04/30 00:08:41;;;;;;;8.75;3.15;;;;;;;11.86;47.83;102529.44;5083540;28;20090;-45
2022/04/30 00:11:07;;;;;;;6.10;2.80;;;;;;;11.82;48.17;102528.19;5096024;28;20027;-46
2022/04/30 00:13:33;;;;;;;10.40;2.50;;;;;;;11.77;48.25;102526.13;5079748;28;20117;-45
2022/04/30 00:15:59;;;;;;;7.30;3.05;;;;;;;11.72;48.23;102529.44;5082989;28;20032;-45
2022/04/30 00:18:25;;;;;;;6.97;2.38;;;;;;;11.69;48.31;102535.25;5079447;28;20036;-46
2022/04/30 00:20:50;;;;;;;5.45;2.83;;;;;;;11.65;48.69;102531.31;5086567;28;20489;-46
2022/04/30 00:23:22;;;;;;;5.75;2.85;;;;;;;11.63;49.14;102533.38;5083837;28;20032;-46
2022/04/30 00:25:49;;;;;;;6.90;3.03;;;;;;;11.58;49.04;102532.38;5086186;28;20024;-48
2022/04/30 00:28:16;;;;;;;5.70;2.70;;;;;;;11.54;49.10;102526.63;5088756;28;20062;-47
2022/04/30 00:30:43;;;;;;;9.65;3.38;;;;;;;11.48;49.52;102525.59;5089578;28;20392;-46
2022/04/30 00:33:10;;;;;;;8.73;3.30;;;;;;;11.45;49.80;102525.19;5087361;28;20654;-45
2022/04/30 00:35:39;;;;;;;6.72;3.20;;;;;;;11.42;49.75;102530.97;5087358;28;20074;-46
2022/04/30 00:38:06;;;;;;;7.00;2.53;;;;;;;11.40;49.81;102531.19;5087468;28;20066;-45
2022/04/30 00:40:31;;;;;;;7.10;3.13;;;;;;;11.35;49.62;102535.53;5091408;28;20115;-45
2022/04/30 00:42:57;;;;;;;7.47;2.97;;;;;;;11.32;49.97;102528.75;5087035;28;20028;-46
2022/04/30 00:45:22;;;;;;;4.75;2.75;;;;;;;11.27;50.20;102522.34;5089762;28;20073;-45
2022/04/30 00:47:48;;;;;;;9.43;2.90;;;;;;;11.23;50.25;102526.47;5088728;28;20031;-45
2022/04/30 00:50:16;;;;;;;8.70;3.42;;;;;;;11.18;50.28;102519.88;5090005;28;20032;-46
2022/04/30 00:52:46;;;;;;;6.40;3.33;;;;;;;11.15;50.96;102528.34;5090211;28;20019;-45
2022/04/30 00:55:12;;;;;;;6.80;2.97;;;;;;;11.13;50.54;102518.84;5088346;28;20103;-47
2022/04/30 00:57:43;;;;;;;5.82;3.20;;;;;;;11.08;50.96;102524.84;5088164;28;20030;-48
2022/04/30 01:00:10;;;;;;;9.60;3.60;;;;;;;11.07;50.84;102515.13;5086283;28;20077;-46
2022/04/30 01:02:36;;;;;;;7.20;3.60;;;;;;;11.05;51.24;102511.03;5087195;28;20028;-46
2022/04/30 01:05:02;;;;;;;6.97;3.35;;;;;;;11.02;51.25;102514.94;5086870;28;20485;-45
2022/04/30 01:07:29;;;;;;;6.55;2.97;;;;;;;11.01;50.97;102517.84;5089518;28;20149;-46
2022/04/30 01:09:55;;;;;;;8.48;3.15;;;;;;;10.97;51.28;102517.44;5090106;28;20109;-45
2022/04/30 01:12:22;;;;;;;8.23;4.05;;;;;;;10.95;51.24;102516.81;5092273;28;20112;-46
2022/04/30 01:14:51;;;;;;;7.75;3.75;;;;;;;10.90;51.31;102509.38;5086849;28;20020;-45
2022/04/30 01:17:17;;;;;;;8.25;3.65;;;;;;;10.89;51.38;102509.59;5086178;28;20020;-45
2022/04/30 01:19:43;;;;;;;8.20;2.95;;;;;;;10.88;51.11;102513.31;5088643;28;20169;-46
2022/04/30 01:22:26;;;;;;;8.68;3.65;;;;;;;10.85;50.88;102511.03;5087787;28;20043;-46
2022/04/30 01:25:00;;;;;;;10.18;3.60;;;;;;;10.78;51.47;102510.22;5085763;28;20036;-45
2022/04/30 01:27:27;;;;;;;11.45;4.45;;;;;;;10.75;51.41;102507.94;5086949;28;20353;-45
2022/04/30 01:29:54;;;;;;;5.72;3.33;;;;;;;10.70;51.63;102507.72;5087937;28;20055;-47
2022/04/30 01:38:00;;;;;;;9.87;3.60;;;;;;;10.63;51.51;102506.91;5087774;28;20109;-46
2022/04/30 01:40:26;;;;;;;5.57;3.03;;;;;;;10.64;51.56;102500.53;5089301;28;20045;-46
2022/04/30 01:42:52;;;;;;;9.25;3.97;;;;;;;10.56;51.49;102502.34;5089662;28;20019;-45
2022/04/30 01:45:18;;;;;;;8.65;3.30;;;;;;;10.53;52.03;102493.91;5086862;28;20055;-46
2022/04/30 01:47:45;;;;;;;8.32;3.40;;;;;;;10.49;51.91;102504.22;5087857;28;20063;-47
2022/04/30 01:50:12;;;;;;;5.88;3.47;;;;;;;10.43;52.14;102501.53;5088165;28;20486;-46
2022/04/30 01:52:39;;;;;;;8.63;3.55;;;;;;;10.36;52.45;102501.50;5083545;28;20123;-46
2022/04/30 01:55:05;;;;;;;10.13;3.85;;;;;;;10.34;52.47;102508.94;5083219;28;20065;-46
2022/04/30 01:57:31;;;;;;;12.25;3.65;;;;;;;10.30;52.69;102502.34;5082408;28;20059;-45
2022/04/30 01:59:59;;;;;;;8.32;3.33;;;;;;;10.28;52.81;102493.69;5080170;28;20534;-45
2022/04/30 02:02:34;;;;;;;10.82;3.65;;;;;;;10.20;53.14;102491.97;5079655;28;20472;-46
2022/04/30 02:05:03;;;;;;;7.60;2.95;;;;;;;10.18;53.44;102495.88;5087609;28;20263;-46
2022/04/30 02:07:30;;;;;;;7.50;3.10;;;;;;;10.13;53.36;102491.13;5085627;28;20039;-46
2022/04/30 02:09:59;;;;;;;8.95;3.22;;;;;;;10.13;53.25;102487.63;5084625;28;20562;-46
2022/04/30 02:12:27;;;;;;;7.65;3.50;;;;;;;10.14;53.15;102486.59;5083715;28;20043;-46
2022/04/30 02:14:54;;;;;;;8.15;3.70;;;;;;;10.15;53.34;102489.06;5085141;28;20103;-46
2022/04/30 02:17:21;;;;;;;7.50;3.42;;;;;;;10.09;53.43;102484.53;5086158;28;20444;-46
2022/04/30 02:22:38;;;;;;;7.38;3.38;;;;;;;10.06;53.25;102484.13;5080979;28;20050;-45
2022/04/30 02:25:09;;;;;;;6.22;3.25;;;;;;;10.00;53.31;102481.22;5086190;28;20400;-46
2022/04/30 02:27:38;;;;;;;7.05;3.88;;;;;;;9.97;53.33;102476.25;5083696;28;20428;-45
2022/04/30 02:30:06;;;;;;;10.98;4.50;;;;;;;9.94;53.79;102486.56;5082410;28;20058;-45
2022/04/30 02:32:46;;;;;;;7.88;3.75;;;;;;;9.89;53.65;102476.47;5085782;28;20452;-45
2022/04/30 02:35:14;;;;;;;7.15;3.55;;;;;;;9.91;53.80;102481.59;5085615;28;20073;-48
2022/04/30 02:37:41;;;;;;;8.98;3.97;;;;;;;9.88;54.01;102473.97;5083789;28;20028;-46
2022/04/30 02:40:07;;;;;;;8.00;4.13;;;;;;;9.84;53.62;102473.53;5084603;28;20122;-45
2022/04/30 02:42:33;;;;;;;6.65;3.83;;;;;;;9.78;53.98;102476.19;5088721;28;20536;-47
2022/04/30 02:44:59;;;;;;;11.25;4.25;;;;;;;9.72;54.13;102471.66;5085668;28;20069;-46
2022/04/30 02:47:25;;;;;;;7.72;3.88;;;;;;;9.72;53.95;102467.13;5084687;28;20031;-45
2022/04/30 02:49:50;;;;;;;9.73;4.38;;;;;;;9.71;54.04;102465.47;5082294;28;20032;-45
2022/04/30 02:52:16;;;;;;;10.30;4.28;;;;;;;9.69;53.83;102467.50;5086324;28;20106;-45
2022/04/30 02:54:41;;;;;;;12.60;4.55;;;;;;;9.66;54.00;102462.56;5084074;28;20032;-46
2022/04/30 02:57:07;;;;;;;7.15;4.20;;;;;;;9.64;53.54;102465.44;5087510;28;20054;-46
2022/04/30 03:02:16;;;;;;;8.63;4.32;;;;;;;9.60;53.81;102456.16;5082294;28;20043;-46
2022/04/30 03:04:42;;;;;;;7.00;3.33;;;;;;;9.60;53.70;102460.69;5082748;28;20445;-46
2022/04/30 03:07:11;;;;;;;8.95;3.80;;;;;;;9.56;53.68;102468.28;5083893;28;20358;-46
2022/04/30 03:09:39;;;;;;;6.75;3.53;;;;;;;9.56;53.50;102464.78;5083918;28;20027;-46
2022/04/30 03:12:08;;;;;;;10.20;4.45;;;;;;;9.53;53.49;102455.31;5085981;28;20031;-45
2022/04/30 03:14:35;;;;;;;6.03;3.30;;;;;;;9.51;53.56;102456.53;5083802;28;20490;-45
2022/04/30 03:22:29;;;;;;;5.90;3.30;;;;;;;9.38;53.58;102442.09;5083384;28;20031;-46
2022/04/30 03:24:54;;;;;;;9.10;4.03;;;;;;;9.39;53.77;102450.94;5081342;28;20032;-45
2022/04/30 03:27:20;;;;;;;6.47;4.07;;;;;;;9.37;53.46;102444.97;5083236;28;20471;-46
2022/04/30 03:29:46;;;;;;;6.45;3.88;;;;;;;9.34;54.08;102443.50;5082046;28;20128;-46
2022/04/30 03:32:12;;;;;;;7.43;3.70;;;;;;;9.33;54.30;102447.19;5084202;28;20024;-44
2022/04/30 03:34:38;;;;;;;7.57;4.00;;;;;;;9.31;54.51;102443.88;5083082;28;20091;-46
2022/04/30 03:37:04;;;;;;;7.55;3.80;;;;;;;9.27;54.16;102439.97;5083737;28;20028;-48
2022/04/30 03:39:30;;;;;;;6.43;3.70;;;;;;;9.26;54.75;102438.31;5084567;28;20024;-46
2022/04/30 03:41:56;;;;;;;7.55;3.60;;;;;;;9.26;54.72;102442.84;5078448;28;20036;-47
2022/04/30 03:44:21;;;;;;;9.73;4.03;;;;;;;9.26;54.44;102438.31;5079671;28;20073;-46
2022/04/30 03:46:47;;;;;;;7.00;3.88;;;;;;;9.25;54.67;102433.97;5076301;28;20487;-45
2022/04/30 03:49:12;;;;;;;8.18;4.13;;;;;;;9.24;54.48;102432.34;5080702;28;20063;-46
2022/04/30 03:51:38;;;;;;;8.13;3.70;;;;;;;9.25;54.28;102433.97;5077562;28;20032;-46
2022/04/30 03:54:04;;;;;;;7.72;4.50;;;;;;;9.25;54.21;102436.66;5079544;28;20032;-46
2022/04/30 03:56:30;;;;;;;7.72;3.92;;;;;;;9.24;54.08;102431.50;5080950;28;20024;-46
2022/04/30 03:58:56;;;;;;;6.93;3.85;;;;;;;9.23;54.42;102430.69;5081925;28;20024;-46
2022/04/30 04:01:22;;;;;;;6.57;3.97;;;;;;;9.24;53.83;102431.50;5083301;28;20028;-48
2022/04/30 04:03:50;;;;;;;9.27;4.53;;;;;;;9.25;54.19;102433.16;5088442;28;20386;-46
2022/04/30 04:06:16;;;;;;;10.02;4.13;;;;;;;9.20;53.96;102425.72;5086514;28;20024;-46
2022/04/30 04:08:43;;;;;;;11.10;4.07;;;;;;;9.17;54.49;102428.81;5085832;28;20092;-46
2022/04/30 04:11:11;;;;;;;7.40;3.83;;;;;;;9.12;54.47;102420.53;5086147;28;20028;-46
2022/04/30 04:19:05;;;;;;;9.68;4.15;;;;;;;9.04;54.48;102421.53;5085816;28;20065;-46
2022/04/30 04:21:31;;;;;;;9.80;4.35;;;;;;;9.06;54.37;102418.66;5083217;28;20040;-46
2022/04/30 04:26:41;;;;;;;7.03;3.63;;;;;;;9.03;54.53;102413.72;5089377;28;20173;-45
2022/04/30 04:29:06;;;;;;;11.57;3.88;;;;;;;9.02;54.67;102420.09;5088510;28;20502;-46
2022/04/30 04:31:32;;;;;;;7.53;3.83;;;;;;;9.03;54.78;102413.72;5082911;28;20031;-46
2022/04/30 04:33:57;;;;;;;7.78;4.18;;;;;;;9.02;54.68;102407.53;5085487;28;20053;-47
2022/04/30 04:36:23;;;;;;;7.72;3.72;;;;;;;9.02;55.00;102414.72;5085846;28;20077;-45
2022/04/30 04:38:48;;;;;;;7.95;4.07;;;;;;;9.01;54.66;102419.25;5081830;28;20512;-46
2022/04/30 04:41:14;;;;;;;6.38;3.38;;;;;;;9.04;54.82;102420.72;5084242;28;20028;-46
2022/04/30 04:43:40;;;;;;;8.65;3.70;;;;;;;9.05;54.98;102420.50;5080921;28;20032;-46
2022/04/30 04:46:06;;;;;;;5.88;3.88;;;;;;;9.08;54.75;102420.09;5080857;28;20366;-46
2022/04/30 04:48:32;;;;;;;8.20;3.53;;;;;;;9.10;54.84;102427.94;5080845;28;20660;-46
2022/04/30 04:50:58;;;;;;;5.32;3.42;;;;;;;9.15;54.68;102428.16;5079096;28;20032;-46
2022/04/30 04:53:24;;;;;;;10.43;3.85;;;;;;;9.18;54.55;102424.28;5080690;28;20062;-46
2022/04/30 04:55:50;;;;;;;7.40;3.80;;;;;;;9.21;54.61;102431.91;5080805;28;20055;-46
2022/04/30 04:58:16;;;;;;;6.63;3.47;;;;;;;9.24;54.44;102434.19;5080305;28;20688;-46
2022/04/30 05:00:42;;;;;;;7.63;3.42;;;;;;;9.26;54.46;102432.97;5076951;28;20035;-45
2022/04/30 05:03:08;;;;;;;5.55;3.42;;;;;;;9.31;54.27;102432.34;5082284;28;20416;-45
2022/04/30 05:05:33;;;;;;;7.68;3.65;;;;;;;9.32;54.38;102428.66;5082731;28;20024;-46
2022/04/30 05:07:59;;;;;;;7.95;3.58;;;;;;;9.34;54.58;102427.47;5084119;28;20028;-46
2022/04/30 05:10:25;;;;;;;7.53;4.13;;;;;;;9.37;54.22;102431.56;5082997;28;20530;-45
2022/04/30 05:12:50;;;;;;;10.65;4.25;;;;;;;9.37;54.42;102436.94;5080871;28;20516;-45
2022/04/30 05:15:16;;;;;;;7.78;4.13;;;;;;;9.37;54.50;102434.25;5085495;28;20024;-46
2022/04/30 05:17:41;;;;;;;8.95;3.60;;;;;;;9.38;54.93;102428.69;5083634;28;20028;-47
2022/04/30 05:20:08;;;;;;;8.57;4.25;;;;;;;9.44;54.91;102442.28;5085390;28;20028;-46
2022/04/30 05:22:33;;;;;;;8.57;4.18;;;;;;;9.46;54.49;102442.91;5080942;28;20024;-46
2022/04/30 05:24:59;;;;;;;4.47;3.33;;;;;;;9.47;54.72;102453.41;5083696;28;20039;-46
2022/04/30 05:27:24;;;;;;;6.93;3.72;;;;;;;9.51;54.67;102443.13;5082282;28;20028;-46
2022/04/30 05:29:50;;;;;;;7.40;3.88;;;;;;;9.52;54.60;102434.13;5083200;28;20084;-46
2022/04/30 05:32:16;;;;;;;11.88;3.60;;;;;;;9.55;54.55;102442.56;5083912;28;20078;-45
2022/04/30 05:34:41;;;;;;;9.32;3.50;;;;;;;9.58;54.44;102439.47;5084106;28;20036;-44
2022/04/30 05:37:07;;;;;;;7.40;3.30;;;;;;;9.59;54.82;102434.97;5085289;28;20024;-46
2022/04/30 05:39:32;;;;;;;7.55;3.85;;;;;;;9.60;54.48;102434.75;5084583;28;20039;-46
2022/04/30 05:41:58;;;;;;;6.53;3.75;;;;;;;9.63;54.80;102447.72;5086822;28;20036;-46
2022/04/30 05:44:23;;;;;;;7.10;3.88;;;;;;;9.66;54.69;102447.31;5083878;28;20556;-46
2022/04/30 05:46:49;;;;;;;8.20;3.88;;;;;;;9.68;54.63;102447.94;5081453;28;20020;-45
2022/04/30 05:49:15;;;;;;;5.72;3.80;;;;;;;9.73;54.88;102447.38;5082347;28;20055;-46
2022/04/30 05:51:40;;;;;;;11.50;3.42;;;;;;;9.76;54.61;102444.28;5080015;28;20024;-46
2022/04/30 05:54:07;;;;;;;7.28;4.03;;;;;;;9.78;55.19;102438.72;5080430;28;20038;-45
2022/04/30 05:56:33;;;;;;;7.88;3.92;;;;;;;9.81;54.82;102451.69;5079514;28;20012;-46
2022/04/30 05:58:58;;;;;;;7.40;3.70;;;;;;;9.83;54.85;102444.28;5079424;28;20028;-46
2022/04/30 06:01:24;;;;;;;9.80;3.30;;;;;;;9.87;54.81;102448.22;5083823;28;20035;-46
2022/04/30 06:03:50;;;;;;;5.95;3.35;;;;;;;9.89;54.83;102447.00;5081986;28;20038;-46
2022/04/30 06:06:18;;;;;;;8.57;3.28;;;;;;;9.91;54.19;102450.31;5083995;28;20020;-46
2022/04/30 06:08:43;;;;;;;6.53;3.50;;;;;;;9.96;54.59;102455.88;5082890;28;20483;-46
2022/04/30 06:11:09;;;;;;;17.85;3.97;;;;;;;10.00;54.42;102454.44;5082800;28;20028;-45
2022/04/30 06:13:34;;;;;;;7.70;4.35;;;;;;;10.04;54.26;102454.03;5082949;28;20031;-48
2022/04/30 06:16:00;;;;;;;7.40;3.85;;;;;;;10.09;54.43;102464.97;5085513;28;20389;-48
2022/04/30 06:18:26;;;;;;;7.45;3.50;;;;;;;10.13;53.94;102460.84;5083833;28;20046;-46
2022/04/30 06:20:52;;;;;;;8.13;3.60;;;;;;;10.16;54.00;102458.59;5083749;28;20046;-46
2022/04/30 06:23:18;;;;;;;6.28;3.78;;;;;;;10.21;53.75;102460.69;5076472;28;20457;-46
2022/04/30 06:25:45;;;;;;;9.88;3.88;;;;;;;10.23;53.99;102456.78;5083007;28;20134;-46
2022/04/30 06:28:12;;;;;;;6.95;3.20;;;;;;;10.28;54.02;102458.84;5078813;28;20038;-47
2022/04/30 06:30:39;;;;;;;7.57;3.60;;;;;;;10.32;53.99;102462.75;5084871;28;20489;-46
2022/04/30 06:33:05;;;;;;;8.15;3.90;;;;;;;10.36;53.66;102458.63;5084334;28;20055;-45
2022/04/30 06:35:31;;;;;;;8.07;4.00;;;;;;;10.40;53.64;102465.22;5083468;28;20465;-47
2022/04/30 06:37:56;;;;;;;7.53;4.25;;;;;;;10.44;53.60;102466.50;5081843;28;20054;-45
2022/04/30 06:40:22;;;;;;;12.35;3.75;;;;;;;10.48;53.74;102459.69;5086376;28;20036;-46
2022/04/30 06:42:47;;;;;;;10.40;3.95;;;;;;;10.52;53.51;102458.25;5085007;28;20028;-46
2022/04/30 06:45:16;;;;;;;10.65;4.60;;;;;;;10.56;53.23;102462.16;5084474;28;20095;-46
2022/04/30 06:47:42;;;;;;;7.88;3.60;;;;;;;10.61;53.09;102472.28;5082932;28;20035;-46
2022/04/30 06:50:09;;;;;;;6.03;2.90;;;;;;;10.65;52.92;102472.69;5082962;28;20039;-46
2022/04/30 06:52:34;;;;;;;7.95;3.78;;;;;;;10.70;52.94;102476.38;5082961;28;20118;-46
2022/04/30 06:57:46;;;;;;;11.52;4.72;;;;;;;10.79;52.97;102477.03;5079231;28;20030;-48
2022/04/30 07:02:57;;;;;;;9.98;4.75;;;;;;;10.86;52.98;102475.97;5080992;28;20038;-46
2022/04/30 07:05:22;;;;;;;8.65;4.78;;;;;;;10.93;52.82;102470.59;5075117;28;20036;-45
2022/04/30 07:07:48;;;;;;;8.65;3.92;;;;;;;10.99;52.49;102480.50;5082377;28;20019;-46
2022/04/30 07:10:13;;;;;;;10.48;3.92;;;;;;;11.04;52.75;102469.97;5081824;28;20031;-46
2022/04/30 07:12:39;;;;;;;7.07;3.67;;;;;;;11.10;52.67;102471.78;5082645;28;20115;-46
2022/04/30 07:15:05;;;;;;;9.77;4.10;;;;;;;11.17;52.41;102472.63;5079466;28;20111;-46
2022/04/30 07:17:31;;;;;;;9.00;4.43;;;;;;;11.27;52.23;102471.34;5082704;28;20019;-46
2022/04/30 07:19:56;;;;;;;8.82;4.20;;;;;;;11.31;52.19;102464.53;5082914;28;20686;-45
2022/04/30 07:22:22;;;;;;;8.50;4.32;;;;;;;11.39;52.20;102475.03;5083319;28;20036;-46
2022/04/30 07:24:48;;;;;;;7.40;3.90;;;;;;;11.43;51.99;102469.03;5079417;28;20099;-47
2022/04/30 07:27:13;;;;;;;6.45;3.55;;;;;;;11.52;51.74;102463.44;5081385;28;20125;-46
2022/04/30 07:29:39;;;;;;;10.90;3.78;;;;;;;11.59;52.11;102465.06;5082033;28;20352;-45
2022/04/30 07:32:07;;;;;;;7.65;3.65;;;;;;;11.66;52.01;102465.84;5079365;28;20027;-45
2022/04/30 07:34:34;;;;;;;6.63;3.53;;;;;;;11.74;51.58;102462.94;5082610;28;20094;-47
2022/04/30 07:37:00;;;;;;;11.32;3.25;;;;;;;11.83;51.51;102468.88;5080030;28;20016;-46
2022/04/30 07:39:25;;;;;;;9.13;3.55;;;;;;;11.94;51.48;102467.41;5078382;28;20046;-46
2022/04/30 07:41:54;;;;;;;6.53;4.32;;;;;;;12.05;51.35;102464.88;5080663;28;20028;-46
2022/04/30 07:44:20;;;;;;;8.63;4.13;;;;;;;12.15;51.13;102460.88;5080773;28;20028;-46
2022/04/30 07:46:46;;;;;;;6.60;3.45;;;;;;;12.26;51.10;102466.38;5079500;28;20073;-46
2022/04/30 07:49:11;;;;;;;6.63;3.60;;;;;;;12.36;50.93;102469.38;5079868;28;20031;-46
2022/04/30 07:51:52;;;;;;;8.27;3.80;;;;;;;12.47;50.80;102467.88;5080293;28;20055;-46
2022/04/30 07:54:18;;;;;;;8.82;3.83;;;;;;;12.55;50.60;102470.28;5079169;28;20028;-45
2022/04/30 07:56:44;;;;;;;7.47;3.58;;;;;;;12.65;50.45;102472.50;5082333;28;20477;-46
2022/04/30 07:59:09;;;;;;;7.78;3.90;;;;;;;12.72;50.25;102465.19;5080643;28;20099;-46
2022/04/30 08:01:35;;;;;;;9.27;4.40;;;;;;;12.79;50.33;102465.13;5076561;28;20024;-46
2022/04/30 08:04:00;;;;;;;10.15;3.80;;;;;;;12.86;50.21;102472.09;5075637;28;20034;-46
2022/04/30 08:06:26;;;;;;;6.85;4.15;;;;;;;12.95;50.05;102483.41;5077681;28;20489;-45
2022/04/30 08:08:51;;;;;;;13.52;5.55;;;;;;;13.05;50.02;102478.31;5078858;28;20043;-45
2022/04/30 08:11:17;;;;;;;12.57;6.68;;;;;;;13.13;50.05;102464.59;5080739;28;20111;-44
2022/04/30 08:13:42;;;;;;;13.35;7.38;;;;;;;13.23;49.87;102464.09;5082117;28;20439;-47
2022/04/30 08:16:09;;;;;;;13.50;6.18;;;;;;;13.34;49.65;102457.97;5084513;28;20035;-45
2022/04/30 08:18:36;;;;;;;11.43;6.00;;;;;;;13.45;49.62;102459.91;5080822;28;20024;-45
2022/04/30 08:21:02;;;;;;;12.88;5.00;;;;;;;13.57;49.22;102457.28;5083144;28;20066;-46
2022/04/30 08:23:28;;;;;;;9.40;4.28;;;;;;;13.64;48.54;102457.19;5084906;28;20055;-45
2022/04/30 08:25:53;;;;;;;8.98;4.00;;;;;;;13.70;47.74;102459.81;5083433;28;20016;-45
2022/04/30 08:28:19;;;;;;;10.10;3.83;;;;;;;13.75;47.59;102457.25;5074416;28;20038;-45
2022/04/30 08:30:44;;;;;;;8.48;3.97;;;;;;;13.81;47.40;102458.19;5083334;28;20028;-45
2022/04/30 08:33:10;;;;;;;9.80;4.18;;;;;;;13.84;47.11;102457.78;5082913;28;20036;-45
2022/04/30 08:35:35;;;;;;;8.60;3.70;;;;;;;13.88;46.79;102453.56;5081403;28;20028;-45
2022/04/30 08:38:00;;;;;;;10.45;4.05;;;;;;;13.91;46.51;102463.88;5084176;28;20043;-46
2022/04/30 08:40:26;;;;;;;9.77;3.67;;;;;;;13.99;46.29;102460.84;5082835;28;20191;-45
2022/04/30 08:42:52;;;;;;;10.02;4.55;;;;;;;14.06;45.92;102458.06;5080741;28;20457;-47
2022/04/30 08:45:21;;;;;;;10.48;3.47;;;;;;;14.15;46.06;102454.00;5086600;28;20523;-46
2022/04/30 08:47:48;;;;;;;8.68;3.92;;;;;;;14.25;45.98;102469.63;5087779;28;20050;-45
2022/04/30 08:50:15;;;;;;;7.88;4.10;;;;;;;14.34;45.88;102462.81;5088775;28;20024;-44
2022/04/30 08:52:41;;;;;;;8.77;4.30;;;;;;;14.36;45.53;102466.09;5088642;28;20077;-45
2022/04/30 08:55:09;;;;;;;9.57;3.88;;;;;;;14.42;45.47;102465.19;5086056;28;20047;-44
2022/04/30 08:57:35;;;;;;;16.25;4.72;;;;;;;14.44;45.18;102465.81;5087558;28;20459;-45
2022/04/30 09:00:02;;;;;;;17.08;4.78;;;;;;;14.48;45.09;102464.28;5085485;28;20032;-46
2022/04/30 09:02:28;;;;;;;12.95;4.88;;;;;;;14.59;45.11;102463.50;5087426;28;20408;-46
2022/04/30 09:04:54;;;;;;;11.48;4.35;;;;;;;14.71;45.34;102469.72;5083538;28;20024;-45
2022/04/30 09:07:25;;;;;;;8.02;3.80;;;;;;;14.80;45.17;102462.09;5081156;28;20545;-45
2022/04/30 09:09:54;;;;;;;9.23;3.50;;;;;;;14.90;44.55;102459.66;5085337;28;20050;-45
2022/04/30 09:12:20;;;;;;;12.18;3.65;;;;;;;14.99;44.43;102460.09;5085776;28;20035;-45
2022/04/30 09:14:47;;;;;;;6.93;4.00;;;;;;;15.04;44.07;102458.31;5080422;28;20020;-45
2022/04/30 09:17:17;;;;;;;12.27;3.70;;;;;;;15.13;44.00;102461.50;5085226;28;20024;-45
2022/04/30 09:19:59;;;;;;;11.15;3.97;;;;;;;15.22;43.82;102457.38;5083616;28;20024;-45
2022/04/30 09:22:29;;;;;;;10.13;3.67;;;;;;;15.32;43.66;102459.47;5081399;28;20024;-45
2022/04/30 09:24:54;;;;;;;6.78;3.78;;;;;;;15.44;43.52;102460.28;5080874;28;20126;-45
2022/04/30 09:27:20;;;;;;;20.48;10.20;;;;;;;15.54;43.45;102463.16;5086466;28;20475;-46
2022/04/30 09:29:46;;;;;;;13.80;7.93;;;;;;;15.58;42.88;102448.13;5083063;28;20165;-45
2022/04/30 09:32:19;;;;;;;92.38;55.55;;;;;;;15.67;42.74;102445.91;5083695;28;20051;-45
2022/04/30 09:37:45;;;;;;;20.33;10.18;;;;;;;15.90;42.69;102445.78;5085102;28;20058;-46
2022/04/30 09:40:14;;;;;;;15.80;7.50;;;;;;;15.95;42.15;102443.16;5086192;28;20036;-44
2022/04/30 09:42:44;;;;;;;14.88;7.50;;;;;;;16.06;42.41;102449.59;5082763;28;20060;-45
2022/04/30 09:45:22;;;;;;;17.90;7.05;;;;;;;16.17;42.29;102456.84;5083384;28;20476;-45
2022/04/30 09:47:48;;;;;;;16.77;5.97;;;;;;;16.33;42.19;102450.59;5085558;28;20036;-46
2022/04/30 09:55:53;;;;;;;10.38;4.40;;;;;;;16.52;41.63;102445.78;5080545;28;20806;-45
2022/04/30 09:58:28;;;;;;;11.93;4.28;;;;;;;16.46;41.77;102444.06;5085150;28;20035;-46
2022/04/30 10:00:58;;;;;;;12.55;5.15;;;;;;;16.57;42.00;102440.44;5082247;28;20024;-45
2022/04/30 10:03:29;;;;;;;11.88;4.50;;;;;;;16.66;41.95;102445.44;5081074;28;20027;-46
2022/04/30 10:06:02;;;;;;;12.15;4.57;;;;;;;16.74;41.95;102445.88;5082712;28;20379;-45
2022/04/30 10:08:34;;;;;;;11.15;4.80;;;;;;;16.86;41.89;102434.94;5085404;28;20409;-45
2022/04/30 10:11:26;;;;;;;11.18;4.57;;;;;;;16.87;41.85;102436.56;5086092;28;20086;-45
2022/04/30 10:14:34;;;;;;;8.52;4.90;;;;;;;16.90;41.76;102434.22;5078382;28;20047;-45
2022/04/30 10:19:35;;;;;;;7.25;4.40;;;;;;;17.09;41.64;102418.50;5068680;28;20024;-80
2022/04/30 10:22:17;;;;;;;9.90;4.88;;;;;;;17.16;40.71;102418.28;5066349;28;20056;-80
2022/04/30 10:24:45;;;;;;;8.98;4.00;;;;;;;17.23;41.33;102421.63;5060008;28;20033;-80
2022/04/30 10:27:11;;;;;;;6.22;4.40;;;;;;;17.32;41.08;102414.69;5065341;28;20024;-80
2022/04/30 10:29:37;;;;;;;8.43;4.45;;;;;;;17.38;40.39;102418.28;5072855;28;20020;-80
2022/04/30 10:32:03;;;;;;;9.20;4.68;;;;;;;17.46;40.68;102420.56;5070870;28;20024;-80
2022/04/30 10:34:30;;;;;;;9.77;4.32;;;;;;;17.54;40.53;102411.97;5070600;28;20032;-80
2022/04/30 10:36:56;;;;;;;12.85;4.70;;;;;;;17.63;40.52;102415.06;5069084;28;20024;-80
2022/04/30 10:39:21;;;;;;;7.47;3.95;;;;;;;17.66;40.24;102414.53;5070394;28;20039;-80
2022/04/30 10:41:54;;;;;;;9.88;4.55;;;;;;;17.71;40.19;102411.91;5068500;28;20099;-79
2022/04/30 10:44:32;;;;;;;7.88;4.60;;;;;;;17.69;39.37;102408.66;5068594;28;20032;-79
2022/04/30 10:47:16;;;;;;;10.38;4.50;;;;;;;17.70;39.39;102405.66;5067280;28;21077;-80
2022/04/30 10:49:41;;;;;;;7.47;3.83;;;;;;;17.79;39.73;102409.56;5063723;28;20028;-79
2022/04/30 10:52:09;;;;;;;12.88;4.63;;;;;;;17.88;39.57;102403.69;5077233;28;20162;-79
2022/04/30 10:54:40;;;;;;;8.30;4.80;;;;;;;17.98;39.78;102406.50;5073067;28;20701;-80
2022/04/30 10:57:05;;;;;;;9.00;4.10;;;;;;;18.09;40.01;102400.88;5078111;28;20021;-80
2022/04/30 10:59:31;;;;;;;9.07;4.13;;;;;;;18.22;40.14;102402.34;5065934;28;20068;-81
2022/04/30 11:01:57;;;;;;;9.00;4.53;;;;;;;18.34;40.20;102394.88;5069628;28;20525;-82
2022/04/30 11:04:23;;;;;;;9.80;4.85;;;;;;;18.46;40.14;102394.66;5071227;28;20040;-80
2022/04/30 11:06:52;;;;;;;10.02;4.80;;;;;;;18.65;39.95;102389.66;5073214;28;20670;-79
2022/04/30 11:09:19;;;;;;;11.05;4.88;;;;;;;18.82;39.32;102384.88;5069264;28;20032;-80
2022/04/30 11:11:47;;;;;;;7.03;4.32;;;;;;;18.92;38.93;102386.81;5073834;28;20020;-81
2022/04/30 11:14:16;;;;;;;6.65;4.15;;;;;;;19.02;39.39;102384.97;5071078;28;20104;-81
2022/04/30 11:16:46;;;;;;;8.48;4.13;;;;;;;19.16;39.69;102376.31;5073409;28;20029;-81
2022/04/30 11:19:17;;;;;;;7.60;4.60;;;;;;;19.31;39.66;102377.19;5069821;28;20433;-81
2022/04/30 11:21:47;;;;;;;6.60;4.10;;;;;;;19.45;39.59;102366.66;5063379;28;20030;-81
2022/04/30 11:24:31;;;;;;;6.00;4.13;;;;;;;19.52;39.21;102366.38;5070203;28;20249;-82
2022/04/30 11:26:59;;;;;;;7.30;3.92;;;;;;;19.55;38.49;102363.97;5069386;28;20032;-82
2022/04/30 11:29:25;;;;;;;6.05;4.28;;;;;;;19.59;38.90;102362.38;5065201;28;20497;-81
2022/04/30 11:31:55;;;;;;;6.45;3.60;;;;;;;19.79;39.00;102363.47;5069503;28;20558;-81
2022/04/30 11:34:22;;;;;;;6.65;4.45;;;;;;;20.03;39.67;102371.91;5066569;28;20045;-81
2022/04/30 11:36:50;;;;;;;10.05;4.22;;;;;;;20.22;38.96;102364.81;5065833;28;20025;-81
2022/04/30 11:39:18;;;;;;;7.07;4.63;;;;;;;20.39;38.43;102359.09;5070855;28;20390;-81
2022/04/30 11:41:46;;;;;;;31.83;19.85;;;;;;;20.53;37.99;102365.63;5070190;28;20031;-81
2022/04/30 11:44:16;;;;;;;85.65;45.38;;;;;;;20.62;37.44;102353.06;5064156;28;20504;-81
2022/04/30 11:46:44;;;;;;;68.13;36.40;;;;;;;20.66;37.29;102359.63;5066163;28;20021;-81
2022/04/30 11:49:11;;;;;;;40.50;23.60;;;;;;;20.74;36.97;102355.50;5067523;28;20032;-81
2022/04/30 11:51:38;;;;;;;48.80;25.13;;;;;;;20.84;37.34;102344.56;5069413;28;20500;-81
2022/04/30 11:54:08;;;;;;;31.35;18.45;;;;;;;20.95;36.61;102340.69;5065835;28;20055;-81
2022/04/30 11:56:34;;;;;;;27.30;15.93;;;;;;;21.05;37.01;102345.28;5069802;28;20028;-81
2022/04/30 11:59:00;;;;;;;70.75;43.75;;;;;;;21.22;37.22;102340.31;5066986;28;20042;-81
2022/04/30 12:01:29;;;;;;;33.88;20.35;;;;;;;21.46;36.74;102336.91;5066423;28;20044;-80
2022/04/30 12:04:08;;;;;;;25.70;14.13;;;;;;;21.69;36.41;102337.00;5069979;28;20110;-80
2022/04/30 12:06:34;;;;;;;11.90;7.75;;;;;;;21.88;35.92;102331.66;5072861;28;20047;-81